sensor_id;sensor_type;location;lat;lon;timestamp;pressure;altitude;pressure_sealevel;temperature;humidity
73651;BME280;61944;52.538;6.108;2022-12-16T00:01:22;100901.16;;;-0.12;100.00
73651;BME280;61944;52.538;6.108;2022-12-16T00:03:52;100917.88;;;-0.08;100.00
73651;BME280;61944;52.538;6.108;2022-12-16T00:06:19;100916.88;;;-0.12;100.00
73651;BME280;61944;52.538;6.108;2022-12-16T00:08:45;100910.34;;;-0.16;100.00
73651;BME280;61944;52.538;6.108;2022-12-16T00:11:10;100897.50;;;-0.21;100.00
73651;BME280;61944;52.538;6.108;2022-12-16T00:13:37;100910.34;;;-0.16;100.00
73651;BME280;61944;52.538;6.108;2022-12-16T00:16:09;100909.50;;;-0.17;100.00
73651;BME280;61944;52.538;6.108;2022-12-16T00:18:36;100921.16;;;-0.06;100.00
73651;BME280;61944;52.538;6.108;2022-12-16T00:21:01;100916.47;;;-0.06;100.00
73651;BME280;61944;52.538;6.108;2022-12-16T00:23:27;100928.75;;;-0.17;100.00
73651;BME280;61944;52.538;6.108;2022-12-16T00:25:53;100928.56;;;-0.07;100.00
73651;BME280;61944;52.538;6.108;2022-12-16T00:28:19;100916.94;;;-0.17;100.00
73651;BME280;61944;52.538;6.108;2022-12-16T00:30:48;100927.34;;;-0.28;100.00
73651;BME280;61944;52.538;6.108;2022-12-16T00:33:15;100928.97;;;-0.13;100.00
73651;BME280;61944;52.538;6.108;2022-12-16T00:35:40;100922.38;;;-0.12;100.00
73651;BME280;61944;52.538;6.108;2022-12-16T00:38:05;100920.13;;;-0.10;100.00
73651;BME280;61944;52.538;6.108;2022-12-16T00:40:31;100920.94;;;-0.10;100.00
73651;BME280;61944;52.538;6.108;2022-12-16T00:42:56;100929.41;;;-0.06;100.00
73651;BME280;61944;52.538;6.108;2022-12-16T00:45:21;100920.31;;;-0.21;100.00
73651;BME280;61944;52.538;6.108;2022-12-16T00:47:48;100925.13;;;-0.12;100.00
73651;BME280;61944;52.538;6.108;2022-12-16T00:50:14;100941.94;;;0.00;100.00
73651;BME280;61944;52.538;6.108;2022-12-16T00:52:40;100942.91;;;-0.24;100.00
73651;BME280;61944;52.538;6.108;2022-12-16T00:55:05;100939.91;;;-0.08;100.00
73651;BME280;61944;52.538;6.108;2022-12-16T00:57:32;100954.97;;;0.08;100.00
73651;BME280;61944;52.538;6.108;2022-12-16T00:59:57;100948.56;;;0.13;100.00
73651;BME280;61944;52.538;6.108;2022-12-16T01:02:23;100941.72;;;0.10;100.00
73651;BME280;61944;52.538;6.108;2022-12-16T01:04:48;100954.91;;;0.13;100.00
73651;BME280;61944;52.538;6.108;2022-12-16T01:07:13;100948.88;;;0.11;100.00
73651;BME280;61944;52.538;6.108;2022-12-16T01:09:39;100959.25;;;0.14;100.00
73651;BME280;61944;52.538;6.108;2022-12-16T01:12:04;100944.28;;;0.07;100.00
73651;BME280;61944;52.538;6.108;2022-12-16T01:14:30;100961.00;;;0.10;100.00
73651;BME280;61944;52.538;6.108;2022-12-16T01:16:55;100963.75;;;0.10;100.00
73651;BME280;61944;52.538;6.108;2022-12-16T01:19:21;100967.63;;;0.09;100.00
73651;BME280;61944;52.538;6.108;2022-12-16T01:21:46;100977.00;;;0.08;100.00
73651;BME280;61944;52.538;6.108;2022-12-16T01:24:12;100966.41;;;0.15;100.00
73651;BME280;61944;52.538;6.108;2022-12-16T01:26:37;100963.56;;;0.20;100.00
73651;BME280;61944;52.538;6.108;2022-12-16T01:29:04;100966.41;;;0.15;100.00
73651;BME280;61944;52.538;6.108;2022-12-16T01:31:29;100970.28;;;0.14;100.00
73651;BME280;61944;52.538;6.108;2022-12-16T01:33:55;100980.97;;;0.16;100.00
73651;BME280;61944;52.538;6.108;2022-12-16T01:36:20;100985.38;;;0.17;100.00
73651;BME280;61944;52.538;6.108;2022-12-16T01:38:45;100998.81;;;0.18;100.00
73651;BME280;61944;52.538;6.108;2022-12-16T01:41:13;100996.19;;;0.13;100.00
73651;BME280;61944;52.538;6.108;2022-12-16T01:43:40;101009.84;;;0.18;100.00
73651;BME280;61944;52.538;6.108;2022-12-16T01:49:03;101004.94;;;0.15;100.00
73651;BME280;61944;52.538;6.108;2022-12-16T01:51:42;100995.97;;;0.10;100.00
73651;BME280;61944;52.538;6.108;2022-12-16T01:54:12;101006.06;;;0.14;100.00
73651;BME280;61944;52.538;6.108;2022-12-16T01:56:44;101008.22;;;0.17;100.00
73651;BME280;61944;52.538;6.108;2022-12-16T01:59:12;100994.13;;;0.05;100.00
73651;BME280;61944;52.538;6.108;2022-12-16T02:01:40;101014.31;;;0.14;100.00
73651;BME280;61944;52.538;6.108;2022-12-16T02:04:05;101011.88;;;0.13;100.00
73651;BME280;61944;52.538;6.108;2022-12-16T02:06:31;100999.63;;;0.05;100.00
73651;BME280;61944;52.538;6.108;2022-12-16T02:08:59;101004.13;;;0.15;100.00
73651;BME280;61944;52.538;6.108;2022-12-16T02:25:35;101026.16;;;0.15;100.00
73651;BME280;61944;52.538;6.108;2022-12-16T02:31:20;101016.78;;;0.16;100.00
73651;BME280;61944;52.538;6.108;2022-12-16T02:36:45;101031.84;;;0.18;100.00
73651;BME280;61944;52.538;6.108;2022-12-16T02:39:31;101031.84;;;0.18;100.00
73651;BME280;61944;52.538;6.108;2022-12-16T02:47:00;101045.31;;;0.20;100.00
73651;BME280;61944;52.538;6.108;2022-12-16T02:51:51;101045.72;;;0.13;100.00
73651;BME280;61944;52.538;6.108;2022-12-16T02:54:17;101046.03;;;0.12;100.00
73651;BME280;61944;52.538;6.108;2022-12-16T02:59:25;101044.28;;;0.16;100.00
73651;BME280;61944;52.538;6.108;2022-12-16T03:02:04;101050.03;;;0.19;100.00
73651;BME280;61944;52.538;6.108;2022-12-16T03:04:51;101053.88;;;0.18;100.00
73651;BME280;61944;52.538;6.108;2022-12-16T03:07:21;101065.91;;;0.23;100.00
73651;BME280;61944;52.538;6.108;2022-12-16T03:09:50;101065.91;;;0.23;100.00
73651;BME280;61944;52.538;6.108;2022-12-16T03:12:17;101058.56;;;0.18;100.00
73651;BME280;61944;52.538;6.108;2022-12-16T03:14:46;101072.56;;;0.22;100.00
73651;BME280;61944;52.538;6.108;2022-12-16T03:17:14;101074.63;;;0.30;100.00
73651;BME280;61944;52.538;6.108;2022-12-16T03:19:42;101075.81;;;0.24;100.00
73651;BME280;61944;52.538;6.108;2022-12-16T03:22:23;101074.47;;;0.21;100.00
73651;BME280;61944;52.538;6.108;2022-12-16T03:24:50;101080.00;;;0.35;100.00
73651;BME280;61944;52.538;6.108;2022-12-16T03:27:19;101086.72;;;0.29;100.00
73651;BME280;61944;52.538;6.108;2022-12-16T03:33:18;101074.81;;;0.19;100.00
73651;BME280;61944;52.538;6.108;2022-12-16T03:35:52;101091.03;;;0.35;100.00
73651;BME280;61944;52.538;6.108;2022-12-16T03:38:19;101083.69;;;0.30;100.00
73651;BME280;61944;52.538;6.108;2022-12-16T03:40:46;101099.59;;;0.33;100.00
73651;BME280;61944;52.538;6.108;2022-12-16T03:43:13;101097.97;;;0.32;100.00
73651;BME280;61944;52.538;6.108;2022-12-16T03:45:42;101089.78;;;0.27;100.00
73651;BME280;61944;52.538;6.108;2022-12-16T03:48:10;101096.63;;;0.30;100.00
73651;BME280;61944;52.538;6.108;2022-12-16T03:50:37;101107.31;;;0.31;100.00
73651;BME280;61944;52.538;6.108;2022-12-16T03:53:03;101102.97;;;0.30;100.00
73651;BME280;61944;52.538;6.108;2022-12-16T03:55:29;101112.53;;;0.33;100.00
73651;BME280;61944;52.538;6.108;2022-12-16T03:57:55;101101.00;;;0.31;100.00
73651;BME280;61944;52.538;6.108;2022-12-16T04:00:21;101114.88;;;0.26;100.00
73651;BME280;61944;52.538;6.108;2022-12-16T04:02:47;101100.91;;;0.22;100.00
73651;BME280;61944;52.538;6.108;2022-12-16T04:05:12;101113.88;;;0.35;100.00
73651;BME280;61944;52.538;6.108;2022-12-16T04:07:38;101115.91;;;0.30;100.00
73651;BME280;61944;52.538;6.108;2022-12-16T04:10:04;101121.31;;;0.35;100.00
73651;BME280;61944;52.538;6.108;2022-12-16T04:12:29;101128.53;;;0.31;100.00
73651;BME280;61944;52.538;6.108;2022-12-16T04:15:13;101126.53;;;0.36;100.00
73651;BME280;61944;52.538;6.108;2022-12-16T04:18:02;101127.13;;;0.33;100.00
73651;BME280;61944;52.538;6.108;2022-12-16T04:20:52;101129.56;;;0.35;100.00
73651;BME280;61944;52.538;6.108;2022-12-16T04:23:49;101124.69;;;0.32;100.00
73651;BME280;61944;52.538;6.108;2022-12-16T04:26:35;101136.00;;;0.30;100.00
73651;BME280;61944;52.538;6.108;2022-12-16T04:29:20;101119.25;;;0.27;100.00
73651;BME280;61944;52.538;6.108;2022-12-16T04:31:45;101129.28;;;0.36;100.00
73651;BME280;61944;52.538;6.108;2022-12-16T04:34:11;101123.44;;;0.24;100.00
73651;BME280;61944;52.538;6.108;2022-12-16T04:36:58;101142.53;;;0.34;100.00
73651;BME280;61944;52.538;6.108;2022-12-16T04:39:42;101136.84;;;0.12;100.00
73651;BME280;61944;52.538;6.108;2022-12-16T04:42:26;101133.97;;;0.03;100.00
73651;BME280;61944;52.538;6.108;2022-12-16T04:45:10;101134.44;;;0.24;100.00
73651;BME280;61944;52.538;6.108;2022-12-16T04:47:54;101136.91;;;0.26;100.00
73651;BME280;61944;52.538;6.108;2022-12-16T04:50:38;101140.69;;;0.30;100.00
73651;BME280;61944;52.538;6.108;2022-12-16T04:53:23;101138.47;;;0.32;100.00
73651;BME280;61944;52.538;6.108;2022-12-16T04:56:08;101148.34;;;0.33;100.00
73651;BME280;61944;52.538;6.108;2022-12-16T04:58:51;101136.72;;;0.36;100.00
73651;BME280;61944;52.538;6.108;2022-12-16T05:01:35;101135.91;;;0.35;100.00
73651;BME280;61944;52.538;6.108;2022-12-16T05:04:19;101127.81;;;0.25;100.00
73651;BME280;61944;52.538;6.108;2022-12-16T05:07:03;101137.09;;;0.29;100.00
73651;BME280;61944;52.538;6.108;2022-12-16T05:09:47;101138.47;;;0.32;100.00
73651;BME280;61944;52.538;6.108;2022-12-16T05:12:31;101142.03;;;0.32;100.00
73651;BME280;61944;52.538;6.108;2022-12-16T05:15:15;101148.34;;;0.33;100.00
73651;BME280;61944;52.538;6.108;2022-12-16T05:18:09;101138.97;;;0.34;100.00
73651;BME280;61944;52.538;6.108;2022-12-16T05:20:53;101135.09;;;0.35;100.00
73651;BME280;61944;52.538;6.108;2022-12-16T05:23:37;101137.84;;;0.35;100.00
73651;BME280;61944;52.538;6.108;2022-12-16T05:26:21;101151.09;;;0.33;100.00
73651;BME280;61944;52.538;6.108;2022-12-16T05:29:05;101145.81;;;0.36;100.00
73651;BME280;61944;52.538;6.108;2022-12-16T05:31:49;101145.28;;;0.34;100.00
73651;BME280;61944;52.538;6.108;2022-12-16T05:34:33;101162.00;;;0.38;100.00
73651;BME280;61944;52.538;6.108;2022-12-16T05:37:17;101154.97;;;0.32;100.00
73651;BME280;61944;52.538;6.108;2022-12-16T05:40:01;101158.75;;;0.36;100.00
73651;BME280;61944;52.538;6.108;2022-12-16T05:42:48;101152.75;;;0.34;100.00
73651;BME280;61944;52.538;6.108;2022-12-16T05:45:33;101156.09;;;0.31;100.00
73651;BME280;61944;52.538;6.108;2022-12-16T05:48:16;101165.38;;;0.35;100.00
73651;BME280;61944;52.538;6.108;2022-12-16T05:51:00;101156.31;;;0.34;100.00
73651;BME280;61944;52.538;6.108;2022-12-16T05:53:44;101158.84;;;0.31;100.00
73651;BME280;61944;52.538;6.108;2022-12-16T05:56:28;101160.16;;;0.33;100.00
73651;BME280;61944;52.538;6.108;2022-12-16T05:59:12;101159.13;;;0.29;100.00
73651;BME280;61944;52.538;6.108;2022-12-16T06:01:56;101160.78;;;0.30;100.00
73651;BME280;61944;52.538;6.108;2022-12-16T06:04:40;101165.47;;;0.30;100.00
73651;BME280;61944;52.538;6.108;2022-12-16T06:07:24;101155.28;;;0.30;100.00
73651;BME280;61944;52.538;6.108;2022-12-16T06:10:08;101173.81;;;0.25;100.00
73651;BME280;61944;52.538;6.108;2022-12-16T06:12:52;101169.34;;;0.29;100.00
73651;BME280;61944;52.538;6.108;2022-12-16T06:15:36;101166.69;;;0.24;100.00
73651;BME280;61944;52.538;6.108;2022-12-16T06:18:20;101161.25;;;0.18;100.00
73651;BME280;61944;52.538;6.108;2022-12-16T06:21:04;101176.66;;;0.19;100.00
73651;BME280;61944;52.538;6.108;2022-12-16T06:23:48;101173.28;;;0.23;100.00
73651;BME280;61944;52.538;6.108;2022-12-16T06:26:32;101172.50;;;0.03;100.00
73651;BME280;61944;52.538;6.108;2022-12-16T06:29:16;101182.06;;;-0.08;100.00
73651;BME280;61944;52.538;6.108;2022-12-16T06:32:00;101184.94;;;0.01;100.00
73651;BME280;61944;52.538;6.108;2022-12-16T06:34:44;101189.03;;;0.03;100.00
73651;BME280;61944;52.538;6.108;2022-12-16T06:37:28;101181.59;;;-0.15;100.00
73651;BME280;61944;52.538;6.108;2022-12-16T06:40:12;101186.66;;;-0.23;100.00
73651;BME280;61944;52.538;6.108;2022-12-16T06:42:56;101190.97;;;-0.16;100.00
73651;BME280;61944;52.538;6.108;2022-12-16T06:45:40;101201.47;;;-0.18;100.00
73651;BME280;61944;52.538;6.108;2022-12-16T06:48:24;101201.75;;;-0.20;100.00
73651;BME280;61944;52.538;6.108;2022-12-16T06:51:08;101196.00;;;-0.24;100.00
73651;BME280;61944;52.538;6.108;2022-12-16T06:53:52;101206.44;;;-0.21;100.00
73651;BME280;61944;52.538;6.108;2022-12-16T06:56:36;101204.50;;;-0.01;100.00
73651;BME280;61944;52.538;6.108;2022-12-16T06:59:20;101206.28;;;-0.10;100.00
73651;BME280;61944;52.538;6.108;2022-12-16T07:02:04;101209.19;;;-0.21;100.00
73651;BME280;61944;52.538;6.108;2022-12-16T07:04:51;101214.69;;;-0.02;100.00
73651;BME280;61944;52.538;6.108;2022-12-16T07:07:35;101222.44;;;-0.23;100.00
73651;BME280;61944;52.538;6.108;2022-12-16T07:10:18;101228.31;;;-0.10;100.00
73651;BME280;61944;52.538;6.108;2022-12-16T07:13:02;101233.66;;;0.52;100.00
73651;BME280;61944;52.538;6.108;2022-12-16T07:15:46;101234.91;;;0.27;100.00
73651;BME280;61944;52.538;6.108;2022-12-16T07:18:30;101249.28;;;0.05;100.00
73651;BME280;61944;52.538;6.108;2022-12-16T07:21:14;101250.97;;;-0.18;100.00
73651;BME280;61944;52.538;6.108;2022-12-16T07:23:58;101250.31;;;-0.10;100.00
73651;BME280;61944;52.538;6.108;2022-12-16T07:26:42;101255.44;;;-0.04;100.00
73651;BME280;61944;52.538;6.108;2022-12-16T07:29:26;101256.41;;;-0.13;100.00
73651;BME280;61944;52.538;6.108;2022-12-16T07:32:10;101264.00;;;-0.05;100.00
73651;BME280;61944;52.538;6.108;2022-12-16T07:34:54;101268.31;;;0.01;100.00
73651;BME280;61944;52.538;6.108;2022-12-16T07:37:38;101274.59;;;0.58;100.00
73651;BME280;61944;52.538;6.108;2022-12-16T07:40:22;101272.63;;;0.45;100.00
73651;BME280;61944;52.538;6.108;2022-12-16T07:43:06;101270.31;;;0.14;100.00
73651;BME280;61944;52.538;6.108;2022-12-16T07:45:50;101274.25;;;0.08;100.00
73651;BME280;61944;52.538;6.108;2022-12-16T07:48:34;101275.44;;;0.02;100.00
73651;BME280;61944;52.538;6.108;2022-12-16T07:51:18;101281.78;;;0.03;100.00
73651;BME280;61944;52.538;6.108;2022-12-16T07:54:02;101283.13;;;0.05;100.00
73651;BME280;61944;52.538;6.108;2022-12-16T07:56:46;101290.25;;;0.25;100.00
73651;BME280;61944;52.538;6.108;2022-12-16T07:59:30;101297.19;;;0.23;100.00
73651;BME280;61944;52.538;6.108;2022-12-16T08:02:14;101306.56;;;0.22;100.00
73651;BME280;61944;52.538;6.108;2022-12-16T08:04:58;101301.22;;;0.30;100.00
73651;BME280;61944;52.538;6.108;2022-12-16T08:07:42;101313.94;;;0.45;100.00
73651;BME280;61944;52.538;6.108;2022-12-16T08:10:26;101319.88;;;0.52;100.00
73651;BME280;61944;52.538;6.108;2022-12-16T08:13:10;101319.97;;;0.47;100.00
73651;BME280;61944;52.538;6.108;2022-12-16T08:15:54;101338.78;;;0.40;100.00
73651;BME280;61944;52.538;6.108;2022-12-16T08:18:39;101336.09;;;0.35;100.00
73651;BME280;61944;52.538;6.108;2022-12-16T08:21:23;101339.66;;;0.54;100.00
73651;BME280;61944;52.538;6.108;2022-12-16T08:24:07;101346.88;;;0.50;100.00
73651;BME280;61944;52.538;6.108;2022-12-16T08:26:51;101346.50;;;0.38;100.00
73651;BME280;61944;52.538;6.108;2022-12-16T08:29:35;101351.28;;;0.32;100.00
73651;BME280;61944;52.538;6.108;2022-12-16T08:32:19;101353.44;;;0.54;100.00
73651;BME280;61944;52.538;6.108;2022-12-16T08:35:03;101356.13;;;0.59;100.00
73651;BME280;61944;52.538;6.108;2022-12-16T08:37:47;101359.94;;;0.64;100.00
73651;BME280;61944;52.538;6.108;2022-12-16T08:40:30;101364.47;;;0.54;100.00
73651;BME280;61944;52.538;6.108;2022-12-16T08:43:15;101367.00;;;0.70;100.00
73651;BME280;61944;52.538;6.108;2022-12-16T08:46:16;101371.53;;;0.60;100.00
73651;BME280;61944;52.538;6.108;2022-12-16T08:49:00;101373.09;;;0.67;100.00
73651;BME280;61944;52.538;6.108;2022-12-16T08:51:44;101377.78;;;0.66;100.00
73651;BME280;61944;52.538;6.108;2022-12-16T08:54:28;101381.88;;;0.69;100.00
73651;BME280;61944;52.538;6.108;2022-12-16T08:57:11;101386.28;;;0.51;100.00
73651;BME280;61944;52.538;6.108;2022-12-16T08:59:55;101388.88;;;0.42;100.00
73651;BME280;61944;52.538;6.108;2022-12-16T09:02:39;101395.38;;;0.51;100.00
73651;BME280;61944;52.538;6.108;2022-12-16T09:05:23;101398.50;;;0.45;100.00
73651;BME280;61944;52.538;6.108;2022-12-16T09:08:07;101395.22;;;0.43;100.00
73651;BME280;61944;52.538;6.108;2022-12-16T09:10:51;101415.75;;;0.50;100.00
73651;BME280;61944;52.538;6.108;2022-12-16T09:13:35;101416.41;;;0.42;100.00
73651;BME280;61944;52.538;6.108;2022-12-16T09:16:19;101412.78;;;0.47;100.00
73651;BME280;61944;52.538;6.108;2022-12-16T09:19:03;101415.47;;;0.52;100.00
73651;BME280;61944;52.538;6.108;2022-12-16T09:21:47;101424.09;;;0.45;100.00
73651;BME280;61944;52.538;6.108;2022-12-16T09:24:31;101420.72;;;0.48;100.00
73651;BME280;61944;52.538;6.108;2022-12-16T09:27:15;101419.94;;;0.67;100.00
73651;BME280;61944;52.538;6.108;2022-12-16T09:29:59;101422.25;;;0.59;100.00
73651;BME280;61944;52.538;6.108;2022-12-16T09:32:44;101425.81;;;0.79;100.00
73651;BME280;61944;52.538;6.108;2022-12-16T09:35:28;101434.88;;;0.98;100.00
73651;BME280;61944;52.538;6.108;2022-12-16T09:38:13;101446.00;;;0.74;100.00
73651;BME280;61944;52.538;6.108;2022-12-16T09:41:03;101440.78;;;0.92;100.00
73651;BME280;61944;52.538;6.108;2022-12-16T09:47:24;101455.69;;;0.91;100.00
73651;BME280;61944;52.538;6.108;2022-12-16T09:50:30;101453.22;;;0.70;100.00
73651;BME280;61944;52.538;6.108;2022-12-16T09:53:19;101462.16;;;0.81;100.00
73651;BME280;61944;52.538;6.108;2022-12-16T09:56:09;101453.06;;;0.62;100.00
73651;BME280;61944;52.538;6.108;2022-12-16T09:58:58;101469.09;;;0.97;100.00
73651;BME280;61944;52.538;6.108;2022-12-16T10:01:44;101479.38;;;1.11;100.00
73651;BME280;61944;52.538;6.108;2022-12-16T10:04:28;101476.31;;;0.93;100.00
73651;BME280;61944;52.538;6.108;2022-12-16T10:07:20;101487.94;;;0.90;100.00
73651;BME280;61944;52.538;6.108;2022-12-16T10:10:16;101474.91;;;0.77;100.00
73651;BME280;61944;52.538;6.108;2022-12-16T10:16:46;101482.88;;;0.78;100.00
73651;BME280;61944;52.538;6.108;2022-12-16T10:20:04;101488.06;;;1.18;100.00
73651;BME280;61944;52.538;6.108;2022-12-16T10:22:58;101489.28;;;1.12;100.00
73651;BME280;61944;52.538;6.108;2022-12-16T10:25:51;101493.31;;;1.00;100.00
73651;BME280;61944;52.538;6.108;2022-12-16T10:28:44;101504.78;;;1.08;100.00
73651;BME280;61944;52.538;6.108;2022-12-16T10:31:30;101486.00;;;0.72;100.00
73651;BME280;61944;52.538;6.108;2022-12-16T10:34:18;101489.72;;;0.81;100.00
73651;BME280;61944;52.538;6.108;2022-12-16T10:37:02;101487.53;;;0.78;100.00
73651;BME280;61944;52.538;6.108;2022-12-16T10:39:56;101487.22;;;1.04;100.00
73651;BME280;61944;52.538;6.108;2022-12-16T10:42:50;101488.25;;;0.70;100.00
73651;BME280;61944;52.538;6.108;2022-12-16T10:45:42;101485.03;;;0.81;100.00
73651;BME280;61944;52.538;6.108;2022-12-16T10:48:28;101477.78;;;0.67;100.00
73651;BME280;61944;52.538;6.108;2022-12-16T10:51:15;101488.53;;;0.87;100.00
73651;BME280;61944;52.538;6.108;2022-12-16T10:54:14;101490.25;;;1.02;100.00
73651;BME280;61944;52.538;6.108;2022-12-16T10:57:13;101491.06;;;1.02;100.00
73651;BME280;61944;52.538;6.108;2022-12-16T11:00:12;101491.22;;;1.11;100.00
73651;BME280;61944;52.538;6.108;2022-12-16T11:03:20;101496.56;;;1.02;100.00
73651;BME280;61944;52.538;6.108;2022-12-16T11:06:07;101501.44;;;0.92;100.00
73651;BME280;61944;52.538;6.108;2022-12-16T11:08:52;101500.47;;;0.83;100.00
73651;BME280;61944;52.538;6.108;2022-12-16T11:11:36;101499.72;;;1.15;100.00
73651;BME280;61944;52.538;6.108;2022-12-16T11:14:28;101505.00;;;1.11;100.00
73651;BME280;61944;52.538;6.108;2022-12-16T11:17:16;101511.78;;;1.19;100.00
73651;BME280;61944;52.538;6.108;2022-12-16T11:23:20;101514.69;;;1.09;100.00
73651;BME280;61944;52.538;6.108;2022-12-16T11:26:05;101524.16;;;1.02;100.00
73651;BME280;61944;52.538;6.108;2022-12-16T11:29:03;101516.09;;;1.25;100.00
73651;BME280;61944;52.538;6.108;2022-12-16T11:34:40;101523.56;;;0.87;100.00
73651;BME280;61944;52.538;6.108;2022-12-16T11:37:26;101536.84;;;1.04;100.00
73651;BME280;61944;52.538;6.108;2022-12-16T11:40:16;101539.38;;;1.19;100.00
73651;BME280;61944;52.538;6.108;2022-12-16T11:43:01;101541.69;;;1.31;100.00
73651;BME280;61944;52.538;6.108;2022-12-16T11:45:48;101536.16;;;1.31;100.00
73651;BME280;61944;52.538;6.108;2022-12-16T11:48:41;101539.38;;;1.19;100.00
73651;BME280;61944;52.538;6.108;2022-12-16T11:51:29;101536.00;;;1.22;100.00
73651;BME280;61944;52.538;6.108;2022-12-16T11:57:00;101528.69;;;1.31;100.00
73651;BME280;61944;52.538;6.108;2022-12-16T12:00:05;101523.84;;;1.23;100.00
73651;BME280;61944;52.538;6.108;2022-12-16T12:11:54;101527.25;;;1.53;100.00
73651;BME280;61944;52.538;6.108;2022-12-16T12:14:54;101532.78;;;1.53;100.00
73651;BME280;61944;52.538;6.108;2022-12-16T12:17:46;101526.91;;;1.40;100.00
73651;BME280;61944;52.538;6.108;2022-12-16T12:20:51;101536.72;;;1.47;100.00
73651;BME280;61944;52.538;6.108;2022-12-16T12:30:20;101548.44;;;1.38;100.00
73651;BME280;61944;52.538;6.108;2022-12-16T12:39:51;101557.38;;;1.30;100.00
73651;BME280;61944;52.538;6.108;2022-12-16T12:42:48;101564.31;;;1.28;100.00
73651;BME280;61944;52.538;6.108;2022-12-16T12:49:11;101571.59;;;2.08;100.00
73651;BME280;61944;52.538;6.108;2022-12-16T12:52:21;101575.09;;;1.62;100.00
73651;BME280;61944;52.538;6.108;2022-12-16T12:55:20;101569.47;;;1.34;100.00
73651;BME280;61944;52.538;6.108;2022-12-16T12:58:11;101574.69;;;1.17;100.00
73651;BME280;61944;52.538;6.108;2022-12-16T13:00:57;101572.31;;;1.29;100.00
73651;BME280;61944;52.538;6.108;2022-12-16T13:03:54;101589.00;;;1.38;100.00
73651;BME280;61944;52.538;6.108;2022-12-16T13:06:40;101586.31;;;1.33;100.00
73651;BME280;61944;52.538;6.108;2022-12-16T13:12:27;101587.59;;;2.94;100.00
73651;BME280;61944;52.538;6.108;2022-12-16T13:15:20;101589.63;;;1.87;100.00
73651;BME280;61944;52.538;6.108;2022-12-16T13:18:21;101590.63;;;2.10;100.00
73651;BME280;61944;52.538;6.108;2022-12-16T13:27:11;101607.56;;;1.32;100.00
73651;BME280;61944;52.538;6.108;2022-12-16T13:33:19;101614.72;;;1.33;100.00
73651;BME280;61944;52.538;6.108;2022-12-16T13:36:03;101615.63;;;1.29;100.00
73651;BME280;61944;52.538;6.108;2022-12-16T13:38:53;101618.16;;;1.25;100.00
73651;BME280;61944;52.538;6.108;2022-12-16T13:50:45;101638.56;;;1.24;100.00
73651;BME280;61944;52.538;6.108;2022-12-16T13:53:36;101629.09;;;1.30;100.00
73651;BME280;61944;52.538;6.108;2022-12-16T13:56:32;101634.41;;;1.27;100.00
73651;BME280;61944;52.538;6.108;2022-12-16T13:59:23;101635.94;;;1.14;100.00
73651;BME280;61944;52.538;6.108;2022-12-16T14:02:17;101649.66;;;1.19;100.00
73651;BME280;61944;52.538;6.108;2022-12-16T14:05:02;101643.63;;;1.17;100.00
73651;BME280;61944;52.538;6.108;2022-12-16T14:07:46;101642.22;;;1.19;100.00
73651;BME280;61944;52.538;6.108;2022-12-16T14:10:37;101647.06;;;1.28;100.00
73651;BME280;61944;52.538;6.108;2022-12-16T14:13:39;101648.84;;;1.18;100.00
73651;BME280;61944;52.538;6.108;2022-12-16T14:16:44;101655.63;;;1.26;100.00
73651;BME280;61944;52.538;6.108;2022-12-16T14:22:46;101648.84;;;1.18;100.00
73651;BME280;61944;52.538;6.108;2022-12-16T14:25:34;101654.66;;;1.17;100.00
73651;BME280;61944;52.538;6.108;2022-12-16T14:28:54;101660.75;;;1.14;100.00
73651;BME280;61944;52.538;6.108;2022-12-16T14:31:38;101664.56;;;1.18;100.00
73651;BME280;61944;52.538;6.108;2022-12-16T14:34:25;101664.88;;;1.16;100.00
73651;BME280;61944;52.538;6.108;2022-12-16T14:37:14;101668.19;;;1.13;100.00
73651;BME280;61944;52.538;6.108;2022-12-16T14:39:58;101677.00;;;1.15;100.00
73651;BME280;61944;52.538;6.108;2022-12-16T14:42:42;101670.22;;;1.08;100.00
73651;BME280;61944;52.538;6.108;2022-12-16T14:45:32;101678.13;;;1.14;100.00
73651;BME280;61944;52.538;6.108;2022-12-16T14:57:03;101693.25;;;1.60;100.00
73651;BME280;61944;52.538;6.108;2022-12-16T15:02:46;101702.50;;;1.26;100.00
73651;BME280;61944;52.538;6.108;2022-12-16T15:05:35;101710.34;;;1.19;100.00
73651;BME280;61944;52.538;6.108;2022-12-16T15:08:21;101712.28;;;1.18;100.00
73651;BME280;61944;52.538;6.108;2022-12-16T15:11:09;101720.22;;;1.20;100.00
73651;BME280;61944;52.538;6.108;2022-12-16T15:13:58;101719.72;;;1.18;100.00
73651;BME280;61944;52.538;6.108;2022-12-16T15:16:43;101724.66;;;1.21;100.00
73651;BME280;61944;52.538;6.108;2022-12-16T15:19:32;101730.75;;;1.18;100.00
73651;BME280;61944;52.538;6.108;2022-12-16T15:22:19;101736.59;;;1.11;100.00
73651;BME280;61944;52.538;6.108;2022-12-16T15:25:03;101737.88;;;0.95;100.00
73651;BME280;61944;52.538;6.108;2022-12-16T15:27:55;101742.72;;;1.08;100.00
73651;BME280;61944;52.538;6.108;2022-12-16T15:30:43;101752.28;;;1.16;100.00
73651;BME280;61944;52.538;6.108;2022-12-16T15:33:33;101755.56;;;1.18;100.00
73651;BME280;61944;52.538;6.108;2022-12-16T15:39:09;101764.78;;;1.08;100.00
73651;BME280;61944;52.538;6.108;2022-12-16T15:41:53;101765.75;;;1.23;100.00
73651;BME280;61944;52.538;6.108;2022-12-16T15:44:46;101768.81;;;1.16;100.00
73651;BME280;61944;52.538;6.108;2022-12-16T15:47:33;101772.78;;;1.10;100.00
73651;BME280;61944;52.538;6.108;2022-12-16T15:50:20;101769.41;;;1.13;100.00
73651;BME280;61944;52.538;6.108;2022-12-16T15:53:35;101768.06;;;1.10;100.00
73651;BME280;61944;52.538;6.108;2022-12-16T15:56:26;101784.34;;;1.12;100.00
73651;BME280;61944;52.538;6.108;2022-12-16T15:59:26;101777.63;;;1.18;100.00
73651;BME280;61944;52.538;6.108;2022-12-16T16:02:17;101779.31;;;1.14;100.00